VABB Airport Information

Runway Information
Runway 09 Length 11312 ft width 197 ft Elevation 15 ft Threshold 465 ft Heading 89
Runway 27 Length 11312 ft Width 197 ft Elevation 22 ft Threshold 1581 ft Heading 269
Runway 14 Length 9419 ft width 148 ft Elevation 37 ft Threshold 1238 ft Heading 134
Runway 32 Length 9419 ft Width 148 ft Elevation 26 ft Threshold 853 ft Heading 314
Airport Frequencies
Type ACC Name MUMBAI Frequency 120.5 MHZ
Type APP Name MUMBAI APP Frequency 127.9 MHZ
Type ATIS Name MUMBAI ATI Frequency 126.4 MHZ
Type CLD Name MUMBAI CLR Frequency 121.85 MHZ
Type GND Name MUMBAI GND Frequency 121.9 MHZ
Type RDO Name MUMBAI RDO Frequency 1008.4 MHZ
Type RDR Name RDR Frequency 119.3 MHZ
Type TWR Name MUMBAI TWR Frequency 118.1 MHZ
Airport Navaids
Type VOR-DME Name Mumbai Frequency 116600 KHZ
Airport Weather Information & NOTAM
ADDS - METARS form results

(2147 UTC 29 January 2023)
Data provider http://aviationweather.gov/metar/data/
 
METAR text: VABB 292130Z 36004KT 2500 BR FEW020 23/21 Q1011 NOSIG
Conditions at: VABB (BOMBAY/SANTACRUZ, IN) observed 2130 UTC 29 January 2023
Temperature: 23.0°C (73°F)
Dewpoint: 21.0°C (70°F) [RH = 89%]
Pressure (altimeter): 29.85 inches Hg (1011.0 mb)
Winds: from the N (360 degrees) at 5 MPH (4 knots; 2.1 m/s)
Visibility: 1.55 miles (2.49 km)
Ceiling: at least 12,000 feet AGL
Clouds: few clouds at 2000 feet AGL
Weather: BR  (mist)

METAR text: VABB 292100Z 27003KT 2200 BR FEW020 24/21 Q1011 NOSIG
Conditions at: VABB (BOMBAY/SANTACRUZ, IN) observed 2100 UTC 29 January 2023
Temperature: 24.0°C (75°F)
Dewpoint: 21.0°C (70°F) [RH = 83%]
Pressure (altimeter): 29.85 inches Hg (1011.0 mb)
Winds: from the W (270 degrees) at 3 MPH (3 knots; 1.5 m/s)
Visibility: 1.37 miles (2.20 km)
Ceiling: at least 12,000 feet AGL
Clouds: few clouds at 2000 feet AGL
Weather: BR  (mist)

Forecast for: VABB (BOMBAY/SANTACRUZ, IN)
Text: TAF VABB 292000Z 2921/3006 VRB03KT 2000 FU HZ FEW020
Forecast period: 2100 UTC 29 January 2023 to 0600 UTC 30 January 2023
Forecast type: FROM: standard forecast or significant change
Winds: variable direction winds at 3 MPH (3 knots; 1.5 m/s)
Visibility: 1.24 miles (2.00 km)
Ceiling: at least 12,000 feet AGL
Clouds: few clouds at 2000 feet AGL
Weather: FU HZ  (smoke, haze)
Text: TEMPO 3001/3004 1500 BR HZ
Forecast period: 0100 to 0400 UTC 30 January 2023
Forecast type: TEMPORARY: The following changes expected for less than half the time period
Visibility: 0.93 miles (1.50 km)
Ceiling: unknown
Clouds: missing
Weather: BR HZ  (mist, haze)